Time;durP1;ratioP1;P1;durP2;ratioP2;P2;SDS_P1;SDS_P2;PMS_P1;PMS_P2;Temp;Humidity;BMP_temperature;BMP_pressure;BME280_temperature;BME280_humidity;BME280_pressure;Samples;Min_cycle;Max_cycle;Signal;HPM_P1;HPM_P2
2022/12/31 03:02:18;;;;;;;3.83;3.63;;;13.80;99.90;;;;;;5253281;23;20734;-80
2022/12/31 03:04:49;;;;;;;3.83;3.63;;;13.70;99.90;;;;;;4912256;29;20255;-81
2022/12/31 03:07:20;;;;;;;4.43;4.03;;;13.70;99.90;;;;;;4919063;29;20666;-80
2022/12/31 03:09:47;;;;;;;6.20;5.80;;;13.70;99.90;;;;;;4918627;29;20578;-81
2022/12/31 03:14:59;;;;;;;7.40;6.73;;;13.70;99.90;;;;;;4899830;29;20205;-81
2022/12/31 03:17:28;;;;;;;5.80;5.30;;;13.70;99.90;;;;;;4898682;29;20201;-81
2022/12/31 03:22:42;;;;;;;5.67;5.30;;;13.80;99.90;;;;;;4893067;29;20291;-81
2022/12/31 03:27:56;;;;;;;3.93;3.70;;;13.80;99.90;;;;;;4898769;29;20204;-81
2022/12/31 03:30:24;;;;;;;2.60;2.40;;;13.80;99.90;;;;;;4898040;29;20643;-81
2022/12/31 03:32:52;;;;;;;4.40;2.37;;;13.80;99.90;;;;;;4895186;29;20197;-81
2022/12/31 03:35:20;;;;;;;8.43;7.83;;;13.80;99.90;;;;;;4899833;29;20205;-81
2022/12/31 03:37:48;;;;;;;3.30;3.10;;;13.80;99.90;;;;;;4899772;29;20256;-81
2022/12/31 03:40:17;;;;;;;3.53;3.30;;;13.80;99.90;;;;;;4899311;29;20201;-81
2022/12/31 03:42:43;;;;;;;7.40;6.90;;;13.80;99.90;;;;;;4900134;29;20221;-81
2022/12/31 03:45:11;;;;;;;3.13;2.93;;;13.80;99.90;;;;;;4898643;29;20634;-81
2022/12/31 03:47:38;;;;;;;5.33;5.07;;;13.80;99.90;;;;;;4899710;29;20216;-81
2022/12/31 03:50:08;;;;;;;2.93;2.73;;;13.90;99.90;;;;;;4899166;29;20206;-81
2022/12/31 03:52:35;;;;;;;3.40;3.20;;;13.90;99.90;;;;;;4899592;29;20217;-81
2022/12/31 03:55:02;;;;;;;2.60;2.50;;;13.90;99.90;;;;;;4900470;29;20208;-80
2022/12/31 03:57:29;;;;;;;5.23;4.93;;;13.90;99.90;;;;;;4896957;29;20208;-80
2022/12/31 03:59:56;;;;;;;2.93;2.73;;;14.00;99.90;;;;;;4899237;29;20204;-80
2022/12/31 04:02:23;;;;;;;1.90;1.80;;;14.00;99.90;;;;;;4896716;29;20229;-78
2022/12/31 04:04:50;;;;;;;5.23;4.83;;;14.00;99.90;;;;;;4900849;29;20209;-81
2022/12/31 04:07:18;;;;;;;5.33;4.93;;;14.10;99.90;;;;;;4897722;29;20202;-78
2022/12/31 04:09:45;;;;;;;5.40;5.00;;;14.10;99.90;;;;;;4897680;29;20227;-78
2022/12/31 04:12:15;;;;;;;7.43;7.03;;;14.10;99.90;;;;;;4898260;29;20245;-78
2022/12/31 04:14:42;;;;;;;7.60;7.20;;;14.20;99.90;;;;;;4898508;29;20207;-78
2022/12/31 04:17:09;;;;;;;4.43;4.23;;;14.30;99.90;;;;;;4897617;29;20588;-79
2022/12/31 04:19:36;;;;;;;2.93;2.73;;;14.30;99.90;;;;;;4899263;29;20256;-79
2022/12/31 04:22:05;;;;;;;2.00;1.90;;;14.30;99.90;;;;;;4895414;29;20719;-78
2022/12/31 04:24:33;;;;;;;2.40;2.20;;;14.30;99.90;;;;;;4899763;29;20204;-78
2022/12/31 04:27:01;;;;;;;3.13;2.00;;;14.30;99.90;;;;;;4898257;29;20288;-78
2022/12/31 04:29:27;;;;;;;2.00;1.90;;;14.30;99.90;;;;;;4898612;29;20198;-77
2022/12/31 04:31:54;;;;;;;1.97;1.87;;;14.40;99.90;;;;;;4895550;29;20312;-79
2022/12/31 04:34:21;;;;;;;2.60;2.50;;;14.40;99.90;;;;;;4896454;29;20216;-79
2022/12/31 04:36:48;;;;;;;7.07;6.67;;;14.40;99.90;;;;;;4899081;29;20200;-79
2022/12/31 04:39:16;;;;;;;2.93;1.80;;;14.40;99.90;;;;;;4897862;29;20215;-79
2022/12/31 04:41:44;;;;;;;4.07;3.87;;;14.40;99.90;;;;;;4897448;29;20253;-79
2022/12/31 04:44:11;;;;;;;6.97;6.47;;;14.40;99.90;;;;;;4898193;29;20196;-79
2022/12/31 04:46:38;;;;;;;7.47;7.07;;;14.40;99.90;;;;;;4891826;29;20748;-79
2022/12/31 04:49:05;;;;;;;1.80;1.80;;;14.40;99.90;;;;;;4899154;29;20748;-79
2022/12/31 04:51:32;;;;;;;3.13;2.93;;;14.40;99.90;;;;;;4899204;29;20284;-79
2022/12/31 04:53:59;;;;;;;2.37;2.27;;;14.40;99.90;;;;;;4897891;29;20228;-79
2022/12/31 04:56:27;;;;;;;2.77;2.57;;;14.30;99.90;;;;;;4898101;29;20669;-79
2022/12/31 04:58:55;;;;;;;5.03;4.80;;;14.30;99.90;;;;;;4900995;29;20206;-81
2022/12/31 05:01:22;;;;;;;3.97;3.50;;;14.20;99.90;;;;;;4899877;29;20968;-81
2022/12/31 05:03:50;;;;;;;2.73;2.63;;;14.10;99.90;;;;;;4900024;29;20258;-80
2022/12/31 05:06:18;;;;;;;2.57;2.47;;;14.10;99.90;;;;;;4900204;29;20209;-81
2022/12/31 05:08:45;;;;;;;2.10;2.00;;;14.00;99.90;;;;;;4900282;29;20201;-79
2022/12/31 05:11:12;;;;;;;6.60;6.30;;;14.00;99.90;;;;;;4899512;29;20216;-82
2022/12/31 05:13:39;;;;;;;5.70;5.40;;;14.00;99.90;;;;;;4893513;29;20196;-81
2022/12/31 05:16:08;;;;;;;1.90;1.90;;;14.00;99.90;;;;;;4892495;29;20754;-81
2022/12/31 05:18:36;;;;;;;1.90;1.80;;;14.00;99.90;;;;;;4897369;29;20208;-81
2022/12/31 05:21:03;;;;;;;4.27;4.07;;;14.00;99.90;;;;;;4900519;29;20286;-81
2022/12/31 05:23:29;;;;;;;3.60;3.40;;;14.00;99.90;;;;;;4903212;29;20277;-81
2022/12/31 05:25:58;;;;;;;3.17;2.97;;;14.00;99.90;;;;;;4901405;29;20201;-80
2022/12/31 05:28:25;;;;;;;4.10;3.90;;;13.90;99.90;;;;;;4904219;29;20224;-80
2022/12/31 05:30:52;;;;;;;4.63;4.27;;;13.90;99.90;;;;;;4896225;29;20238;-81
2022/12/31 05:33:21;;;;;;;3.43;3.23;;;13.90;99.90;;;;;;4901882;29;20270;-79
2022/12/31 05:35:48;;;;;;;3.93;3.73;;;13.90;99.90;;;;;;4902785;29;20199;-79
2022/12/31 05:38:15;;;;;;;2.60;2.40;;;13.90;99.90;;;;;;4902303;29;20208;-78
2022/12/31 05:40:42;;;;;;;4.83;4.53;;;13.90;99.90;;;;;;4902094;29;20228;-80
2022/12/31 05:43:09;;;;;;;3.63;3.43;;;13.80;99.90;;;;;;4902043;29;20272;-80
2022/12/31 05:45:36;;;;;;;5.03;4.63;;;13.90;99.90;;;;;;4905479;29;20202;-81
2022/12/31 05:48:02;;;;;;;7.17;6.77;;;13.90;99.90;;;;;;4905515;29;20212;-80
2022/12/31 05:50:31;;;;;;;3.70;3.50;;;13.90;99.90;;;;;;4902900;29;20202;-81
2022/12/31 05:53:04;;;;;;;2.63;2.50;;;13.90;99.90;;;;;;4905758;29;20192;-81
2022/12/31 05:55:30;;;;;;;2.50;2.40;;;14.00;99.90;;;;;;4906076;29;20193;-81
2022/12/31 05:57:57;;;;;;;2.40;2.30;;;14.00;99.90;;;;;;4903961;29;20214;-81
2022/12/31 06:00:24;;;;;;;2.60;2.50;;;14.00;99.90;;;;;;4902689;29;20534;-81
2022/12/31 06:02:51;;;;;;;4.17;3.97;;;14.00;99.90;;;;;;4905547;29;20221;-81
2022/12/31 06:05:18;;;;;;;4.80;4.60;;;14.00;99.90;;;;;;4905028;29;20261;-81
2022/12/31 06:07:46;;;;;;;4.63;4.40;;;13.90;99.90;;;;;;4903491;29;20210;-81
2022/12/31 06:10:13;;;;;;;5.60;5.30;;;13.80;99.90;;;;;;4903248;29;20237;-80
2022/12/31 06:12:40;;;;;;;4.47;4.27;;;13.80;99.90;;;;;;4902640;29;20251;-81
2022/12/31 06:15:09;;;;;;;8.30;7.77;;;13.60;99.90;;;;;;4905080;29;20313;-80
2022/12/31 06:17:35;;;;;;;9.53;9.03;;;13.60;99.90;;;;;;4905346;29;20197;-81
2022/12/31 06:20:02;;;;;;;9.70;9.20;;;13.50;99.90;;;;;;4902639;29;20312;-81
2022/12/31 06:22:29;;;;;;;9.60;9.10;;;13.50;99.90;;;;;;4905248;29;20255;-80
2022/12/31 06:24:57;;;;;;;9.40;8.87;;;13.50;99.90;;;;;;4903285;29;20200;-81
2022/12/31 06:27:24;;;;;;;9.43;8.93;;;13.40;99.90;;;;;;4902978;29;20205;-81
2022/12/31 06:29:52;;;;;;;5.00;4.80;;;13.40;99.90;;;;;;4903198;29;20293;-81
2022/12/31 06:32:18;;;;;;;4.87;4.63;;;13.40;99.90;;;;;;4903171;29;20234;-81
2022/12/31 06:34:45;;;;;;;9.23;8.73;;;13.40;99.90;;;;;;4903007;29;20274;-81
2022/12/31 06:37:12;;;;;;;9.80;9.30;;;13.30;99.90;;;;;;4902550;29;20204;-81
2022/12/31 06:39:39;;;;;;;9.70;9.20;;;13.30;99.90;;;;;;4901913;29;20248;-81
2022/12/31 06:42:07;;;;;;;9.57;9.07;;;13.30;99.90;;;;;;4903136;29;20220;-80
2022/12/31 06:44:34;;;;;;;9.47;8.97;;;13.20;99.90;;;;;;4902841;29;20264;-81
2022/12/31 06:47:00;;;;;;;9.80;9.30;;;13.30;99.90;;;;;;4903070;29;20565;-81
2022/12/31 06:49:27;;;;;;;9.80;9.30;;;13.30;99.90;;;;;;4914321;29;20212;-81
2022/12/31 06:51:54;;;;;;;10.00;9.50;;;13.30;99.90;;;;;;4903994;29;20280;-81
2022/12/31 06:54:21;;;;;;;10.27;9.60;;;13.30;99.90;;;;;;4903105;29;20197;-81
2022/12/31 06:56:48;;;;;;;10.10;9.50;;;13.30;99.90;;;;;;4904220;29;20261;-80
2022/12/31 06:59:24;;;;;;;10.13;9.53;;;13.30;99.90;;;;;;4903452;29;20221;-81
2022/12/31 07:02:20;;;;;;;11.10;10.50;;;13.20;99.90;;;;;;4904174;29;20721;-81
2022/12/31 07:05:09;;;;;;;10.90;10.30;;;13.30;99.90;;;;;;4897740;29;20583;-80
2022/12/31 07:07:46;;;;;;;10.60;10.00;;;13.20;99.90;;;;;;4897025;29;20665;-81
2022/12/31 07:10:21;;;;;;;10.50;9.90;;;13.20;99.90;;;;;;4903266;29;20197;-80
2022/12/31 07:13:10;;;;;;;10.40;9.90;;;13.20;99.90;;;;;;4902439;29;20279;-79
2022/12/31 07:15:59;;;;;;;10.30;9.70;;;13.20;99.90;;;;;;4898897;29;20564;-80
2022/12/31 07:18:36;;;;;;;10.17;9.57;;;13.30;99.90;;;;;;4903289;29;20244;-80
2022/12/31 07:21:03;;;;;;;10.00;9.50;;;13.20;99.90;;;;;;4901042;29;20256;-80
2022/12/31 07:23:31;;;;;;;10.00;9.50;;;13.20;99.90;;;;;;4901534;29;20212;-80
2022/12/31 07:26:05;;;;;;;10.70;10.00;;;13.30;99.90;;;;;;4903280;29;20208;-81
2022/12/31 07:28:48;;;;;;;10.47;9.90;;;13.30;99.90;;;;;;4906985;29;20197;-80
2022/12/31 07:31:26;;;;;;;10.40;9.70;;;13.30;99.90;;;;;;4895939;29;20248;-80
2022/12/31 07:33:59;;;;;;;9.93;9.43;;;13.30;99.90;;;;;;4901692;29;20556;-82
2022/12/31 07:36:37;;;;;;;10.20;9.67;;;13.30;99.90;;;;;;4902360;29;20262;-82
2022/12/31 07:39:10;;;;;;;10.30;9.70;;;13.30;99.90;;;;;;4901472;29;20215;-82
2022/12/31 07:41:47;;;;;;;10.13;9.53;;;13.30;99.90;;;;;;4902678;29;20744;-79
2022/12/31 07:44:29;;;;;;;9.93;9.43;;;13.30;99.90;;;;;;4900596;29;20284;-81
2022/12/31 07:47:00;;;;;;;10.37;9.77;;;13.40;99.90;;;;;;4893024;29;20199;-80
2022/12/31 07:49:29;;;;;;;10.47;9.87;;;13.40;99.90;;;;;;4902665;29;20205;-79
2022/12/31 07:51:56;;;;;;;9.43;8.93;;;13.40;99.90;;;;;;4902185;29;20220;-79
2022/12/31 07:54:23;;;;;;;2.30;2.20;;;13.50;99.90;;;;;;4901116;29;20722;-82
2022/12/31 07:56:50;;;;;;;2.73;2.63;;;13.50;99.90;;;;;;4899141;29;20256;-82
2022/12/31 07:59:30;;;;;;;4.10;3.90;;;13.70;99.90;;;;;;4900761;29;20217;-82
2022/12/31 08:02:04;;;;;;;2.43;2.33;;;13.70;99.90;;;;;;4900877;29;20242;-81
2022/12/31 08:04:39;;;;;;;3.00;2.80;;;13.80;99.90;;;;;;4901000;29;20228;-81
2022/12/31 08:07:15;;;;;;;6.57;6.13;;;13.90;99.90;;;;;;4900033;29;20208;-78
2022/12/31 08:09:49;;;;;;;2.40;2.30;;;14.10;99.90;;;;;;4900357;29;20678;-81
2022/12/31 08:12:18;;;;;;;2.50;2.40;;;14.30;99.90;;;;;;4900443;29;20230;-81
2022/12/31 08:14:46;;;;;;;4.37;4.17;;;14.50;99.90;;;;;;4899454;29;20209;-81
2022/12/31 08:17:17;;;;;;;7.80;7.40;;;14.80;99.90;;;;;;4900007;29;20222;-80
2022/12/31 08:19:45;;;;;;;8.67;8.07;;;15.00;99.90;;;;;;4898807;29;20206;-81
2022/12/31 08:22:35;;;;;;;9.43;8.93;;;15.20;99.90;;;;;;4900013;29;20762;-81
2022/12/31 08:25:16;;;;;;;8.13;7.63;;;15.40;99.90;;;;;;4901571;29;20216;-79
2022/12/31 08:27:50;;;;;;;10.70;10.10;;;15.60;99.90;;;;;;4895982;29;20199;-81
2022/12/31 08:30:20;;;;;;;10.50;9.90;;;15.70;99.90;;;;;;4894160;29;20246;-82
2022/12/31 08:32:54;;;;;;;9.47;8.97;;;15.70;99.90;;;;;;4900545;29;20707;-81
2022/12/31 08:35:33;;;;;;;3.90;3.70;;;15.70;99.90;;;;;;4903324;29;20264;-83
2022/12/31 08:38:09;;;;;;;2.20;2.10;;;15.70;99.90;;;;;;4899092;29;20205;-82
2022/12/31 08:40:54;;;;;;;2.70;2.50;;;15.70;99.90;;;;;;4897995;29;20215;-82
2022/12/31 08:43:37;;;;;;;2.83;2.60;;;15.70;99.90;;;;;;4902858;29;20208;-82
2022/12/31 08:46:11;;;;;;;2.30;2.20;;;15.70;99.90;;;;;;4901965;29;20207;-83
2022/12/31 08:48:42;;;;;;;2.70;2.50;;;15.80;99.90;;;;;;4898963;29;20681;-83
2022/12/31 08:51:14;;;;;;;2.30;2.20;;;15.80;99.90;;;;;;4899562;29;20232;-83
2022/12/31 08:53:42;;;;;;;2.63;2.23;;;15.90;99.90;;;;;;4900648;29;20196;-82
2022/12/31 08:56:30;;;;;;;2.60;2.40;;;16.20;99.90;;;;;;4898585;29;20212;-82
2022/12/31 08:59:15;;;;;;;2.37;2.10;;;16.50;99.90;;;;;;4896735;29;20235;-82
2022/12/31 09:01:59;;;;;;;4.17;2.70;;;16.60;99.90;;;;;;4899929;29;20224;-81
2022/12/31 09:04:40;;;;;;;2.30;2.10;;;16.70;99.90;;;;;;4902972;29;20216;-81
2022/12/31 09:07:08;;;;;;;4.50;4.20;;;16.60;99.90;;;;;;4898135;29;20204;-81
2022/12/31 09:09:44;;;;;;;2.30;2.20;;;16.60;99.90;;;;;;4901632;29;20212;-80
2022/12/31 09:12:18;;;;;;;2.40;2.20;;;16.60;99.90;;;;;;4898913;29;20220;-80
2022/12/31 09:14:48;;;;;;;2.17;2.07;;;16.50;99.90;;;;;;4900772;29;20192;-80
2022/12/31 09:17:32;;;;;;;2.37;2.20;;;16.40;99.90;;;;;;4896970;29;20272;-80
2022/12/31 09:20:01;;;;;;;2.40;2.30;;;16.40;99.90;;;;;;4899339;29;20200;-80
2022/12/31 09:22:28;;;;;;;2.50;2.30;;;16.40;99.90;;;;;;4891120;29;20261;-77
2022/12/31 09:24:55;;;;;;;2.67;2.50;;;16.30;99.90;;;;;;4891876;29;20688;-77
2022/12/31 09:27:27;;;;;;;2.80;2.60;;;16.30;99.90;;;;;;4897915;29;20283;-77
2022/12/31 09:30:02;;;;;;;2.30;2.20;;;16.40;99.90;;;;;;4899946;29;20205;-76
2022/12/31 09:32:36;;;;;;;2.50;2.30;;;16.40;99.90;;;;;;4892906;29;20226;-76
2022/12/31 09:35:12;;;;;;;2.87;2.67;;;16.50;99.90;;;;;;4895169;29;20231;-77
2022/12/31 09:37:45;;;;;;;2.50;2.40;;;16.70;99.90;;;;;;4892859;29;20192;-77
2022/12/31 09:40:39;;;;;;;2.43;2.23;;;16.70;99.90;;;;;;4889715;29;20281;-76
2022/12/31 09:43:52;;;;;;;2.23;2.13;;;16.80;99.90;;;;;;4892791;29;20224;-76
2022/12/31 09:46:42;;;;;;;2.47;2.27;;;16.90;99.90;;;;;;4836548;29;20199;-77
2022/12/31 09:49:34;;;;;;;2.27;2.17;;;17.00;99.90;;;;;;4835646;29;20243;-77
2022/12/31 09:52:17;;;;;;;2.93;2.20;;;17.00;99.90;;;;;;4877710;29;20221;-77
2022/12/31 09:54:53;;;;;;;3.10;2.33;;;17.00;99.90;;;;;;4891532;29;20201;-77
2022/12/31 09:57:37;;;;;;;2.40;2.20;;;17.10;99.90;;;;;;4896206;29;20232;-77
2022/12/31 10:00:10;;;;;;;2.13;2.03;;;17.10;99.90;;;;;;4895314;29;20204;-77
2022/12/31 10:02:58;;;;;;;2.60;2.40;;;17.10;99.90;;;;;;4892995;29;20272;-81
2022/12/31 10:05:40;;;;;;;5.77;5.37;;;17.10;99.90;;;;;;4910891;29;20278;-77
2022/12/31 10:08:20;;;;;;;3.40;3.10;;;17.20;99.90;;;;;;4892890;29;20197;-77
2022/12/31 10:10:53;;;;;;;3.00;2.80;;;17.30;99.90;;;;;;4893444;29;20220;-79
2022/12/31 10:13:44;;;;;;;2.50;2.30;;;17.30;99.90;;;;;;4895625;29;20205;-78
2022/12/31 10:16:41;;;;;;;14.37;7.63;;;17.30;99.90;;;;;;4899200;29;20221;-77
2022/12/31 10:19:47;;;;;;;11.03;8.20;;;17.40;99.90;;;;;;4895788;29;20216;-76
2022/12/31 10:22:40;;;;;;;4.67;3.60;;;17.50;99.90;;;;;;4892528;29;20717;-76
2022/12/31 10:25:23;;;;;;;4.97;4.47;;;17.50;99.90;;;;;;4892471;29;20212;-77
2022/12/31 10:27:54;;;;;;;5.30;5.00;;;17.50;99.90;;;;;;4893914;29;20279;-77
2022/12/31 10:30:24;;;;;;;6.67;6.27;;;17.50;99.90;;;;;;4911117;29;20261;-77
2022/12/31 10:33:06;;;;;;;6.13;5.80;;;17.50;99.90;;;;;;4898198;29;20205;-76
2022/12/31 10:35:41;;;;;;;2.87;2.67;;;17.50;99.90;;;;;;4886443;29;20217;-76
2022/12/31 10:38:22;;;;;;;2.27;2.10;;;17.40;99.90;;;;;;4895931;29;20557;-76
2022/12/31 10:41:25;;;;;;;2.60;2.50;;;17.40;99.90;;;;;;4907793;29;20231;-76
2022/12/31 10:44:19;;;;;;;2.67;2.43;;;17.30;99.90;;;;;;4897891;29;20219;-78
2022/12/31 10:47:31;;;;;;;2.23;2.13;;;17.40;99.90;;;;;;4894696;29;20214;-76
2022/12/31 10:50:40;;;;;;;2.60;2.40;;;17.40;99.90;;;;;;4864768;29;20316;-77
2022/12/31 10:53:39;;;;;;;2.53;2.20;;;17.30;99.90;;;;;;4908723;29;20201;-77
2022/12/31 10:56:49;;;;;;;4.03;3.57;;;17.30;99.90;;;;;;4898048;29;20296;-77
2022/12/31 10:59:52;;;;;;;3.33;3.13;;;17.30;99.90;;;;;;4897888;29;20549;-76
2022/12/31 11:02:56;;;;;;;2.20;2.10;;;17.30;99.90;;;;;;4898574;29;20712;-76
2022/12/31 11:05:52;;;;;;;3.13;2.93;;;17.40;99.90;;;;;;4897020;29;20630;-76
2022/12/31 11:08:38;;;;;;;8.53;8.03;;;17.40;99.90;;;;;;4899258;29;20240;-76
2022/12/31 11:11:27;;;;;;;4.40;4.10;;;17.40;99.90;;;;;;4911701;29;20749;-79
2022/12/31 11:14:20;;;;;;;2.93;2.73;;;17.50;99.90;;;;;;4897004;29;20215;-79
2022/12/31 11:17:07;;;;;;;2.70;2.47;;;17.50;99.90;;;;;;4910341;29;20205;-80
2022/12/31 11:19:40;;;;;;;8.93;8.37;;;17.50;99.90;;;;;;4877836;29;20209;-79
2022/12/31 11:22:24;;;;;;;4.00;3.80;;;17.60;99.90;;;;;;4895324;29;20709;-80
2022/12/31 11:25:06;;;;;;;5.30;5.00;;;17.70;99.90;;;;;;4913643;29;20227;-80
2022/12/31 11:27:49;;;;;;;3.37;3.17;;;17.80;99.90;;;;;;4898330;29;20214;-81
2022/12/31 11:30:22;;;;;;;4.13;3.37;;;17.80;99.90;;;;;;4900159;29;20201;-79
2022/12/31 11:33:04;;;;;;;3.20;3.00;;;17.90;99.90;;;;;;4899754;29;20208;-80
2022/12/31 11:35:47;;;;;;;9.20;8.70;;;17.90;99.90;;;;;;4893851;29;20198;-80
2022/12/31 11:38:22;;;;;;;3.43;3.23;;;17.90;99.90;;;;;;4900385;29;20206;-79
2022/12/31 11:40:59;;;;;;;2.70;2.20;;;17.90;99.90;;;;;;4911687;29;20238;-80
2022/12/31 11:43:34;;;;;;;2.40;2.30;;;18.00;99.90;;;;;;4899381;29;20726;-80
2022/12/31 11:46:21;;;;;;;2.47;2.33;;;18.00;99.90;;;;;;4899343;29;20711;-80
2022/12/31 11:49:09;;;;;;;3.07;2.87;;;18.00;99.90;;;;;;4901600;29;20207;-80
2022/12/31 11:51:58;;;;;;;4.07;3.77;;;18.10;99.90;;;;;;4904481;29;20224;-80
2022/12/31 11:54:53;;;;;;;11.23;8.60;;;18.10;99.90;;;;;;4899939;29;20199;-79
2022/12/31 11:57:26;;;;;;;8.33;6.60;;;18.10;99.90;;;;;;4898631;29;20624;-80
2022/12/31 11:59:57;;;;;;;7.07;5.43;;;18.20;99.90;;;;;;4883399;29;20224;-80
2022/12/31 12:02:27;;;;;;;5.53;4.63;;;18.20;99.90;;;;;;4898896;29;20596;-80
2022/12/31 12:04:59;;;;;;;7.10;5.47;;;18.10;99.90;;;;;;4900373;29;20204;-80
2022/12/31 12:07:26;;;;;;;5.50;5.00;;;18.20;99.90;;;;;;4898461;29;20207;-80
2022/12/31 12:09:55;;;;;;;5.27;4.87;;;18.30;99.90;;;;;;4898318;29;20206;-79
2022/12/31 12:12:22;;;;;;;2.90;2.30;;;18.30;99.90;;;;;;4899911;29;20237;-80
2022/12/31 12:14:53;;;;;;;2.50;2.30;;;18.30;99.90;;;;;;4898460;29;20661;-80
2022/12/31 12:17:30;;;;;;;2.37;2.27;;;18.30;99.90;;;;;;4898979;29;20210;-80
2022/12/31 12:20:01;;;;;;;2.47;2.30;;;18.40;99.90;;;;;;4898336;29;20206;-80
2022/12/31 12:22:33;;;;;;;2.23;2.10;;;18.40;99.90;;;;;;4899807;29;20251;-80
2022/12/31 12:25:05;;;;;;;2.27;2.13;;;18.40;99.90;;;;;;4898340;29;20282;-80
2022/12/31 12:27:34;;;;;;;2.10;2.00;;;18.40;99.90;;;;;;4890521;29;20267;-80
2022/12/31 12:30:10;;;;;;;2.20;2.00;;;18.40;99.90;;;;;;4898322;29;20797;-80
2022/12/31 12:32:38;;;;;;;2.13;2.03;;;18.40;99.90;;;;;;4898547;29;20282;-80
2022/12/31 12:35:16;;;;;;;2.20;2.10;;;18.40;99.90;;;;;;4900398;29;20679;-80
2022/12/31 12:37:42;;;;;;;2.20;2.10;;;18.50;99.90;;;;;;4899105;29;20199;-80
2022/12/31 12:40:19;;;;;;;2.00;1.90;;;18.50;99.90;;;;;;4900266;29;20282;-81
2022/12/31 12:42:48;;;;;;;2.20;2.00;;;18.40;99.90;;;;;;4898377;29;20804;-80
2022/12/31 12:45:16;;;;;;;2.10;2.00;;;18.50;99.90;;;;;;4912741;29;20725;-80
2022/12/31 12:47:47;;;;;;;5.80;5.50;;;18.40;99.90;;;;;;4899066;29;20265;-84
2022/12/31 12:50:20;;;;;;;7.00;6.57;;;18.40;99.90;;;;;;4899480;29;20196;-80
2022/12/31 12:53:26;;;;;;;7.50;7.10;;;18.40;99.90;;;;;;4898435;29;20226;-79
2022/12/31 12:56:04;;;;;;;8.00;7.60;;;18.40;99.90;;;;;;4906383;29;20258;-80
2022/12/31 12:58:47;;;;;;;8.97;8.47;;;18.40;99.90;;;;;;4898644;29;20231;-79
2022/12/31 13:01:23;;;;;;;8.83;8.33;;;18.40;99.90;;;;;;4897785;29;20241;-80
2022/12/31 13:04:16;;;;;;;9.30;8.80;;;18.30;99.90;;;;;;4898405;29;20268;-77
2022/12/31 13:07:02;;;;;;;9.03;8.53;;;18.30;99.90;;;;;;4892893;29;20190;-78
2022/12/31 13:09:40;;;;;;;9.50;9.00;;;18.30;99.90;;;;;;4902381;29;20682;-78
2022/12/31 13:12:16;;;;;;;8.90;8.40;;;18.20;99.90;;;;;;4914381;29;20226;-78
2022/12/31 13:14:52;;;;;;;8.93;8.43;;;18.10;99.90;;;;;;4895250;29;20562;-80
2022/12/31 13:17:39;;;;;;;2.20;2.10;;;18.10;99.90;;;;;;4898842;29;20210;-80
2022/12/31 13:20:15;;;;;;;2.80;2.60;;;18.00;99.90;;;;;;4910459;29;20274;-80
2022/12/31 13:22:47;;;;;;;1.90;1.90;;;18.00;99.90;;;;;;4898269;29;20700;-77
2022/12/31 13:25:25;;;;;;;2.13;2.03;;;18.00;99.90;;;;;;4898303;29;20266;-78
2022/12/31 13:27:58;;;;;;;2.00;1.90;;;18.00;99.90;;;;;;4899750;29;20730;-81
2022/12/31 13:30:28;;;;;;;4.57;4.37;;;18.00;99.90;;;;;;4898458;29;20199;-80
2022/12/31 13:33:00;;;;;;;6.10;5.70;;;18.00;99.90;;;;;;4900474;29;20221;-80
2022/12/31 13:35:31;;;;;;;7.00;6.60;;;17.90;99.90;;;;;;4898353;29;20535;-78
2022/12/31 13:38:02;;;;;;;5.80;5.50;;;17.90;99.90;;;;;;4896559;29;20217;-76
2022/12/31 13:40:38;;;;;;;5.20;4.90;;;17.80;99.90;;;;;;4897861;29;20305;-81
2022/12/31 13:43:15;;;;;;;5.30;5.00;;;17.90;99.90;;;;;;4897298;29;20269;-82
2022/12/31 13:45:44;;;;;;;6.33;6.03;;;17.90;99.90;;;;;;4896447;29;20252;-84
2022/12/31 13:48:18;;;;;;;6.40;6.03;;;17.90;99.90;;;;;;4901841;29;20206;-78
2022/12/31 13:50:54;;;;;;;6.60;6.20;;;17.90;99.90;;;;;;4898424;29;20220;-79
2022/12/31 13:53:26;;;;;;;6.70;6.30;;;17.80;99.90;;;;;;4906764;29;20212;-79
2022/12/31 13:55:57;;;;;;;6.30;5.90;;;17.80;99.90;;;;;;4918914;29;20742;-79
2022/12/31 13:58:31;;;;;;;6.30;6.00;;;17.80;99.90;;;;;;4903382;29;20228;-79
2022/12/31 14:01:04;;;;;;;6.40;6.10;;;17.80;99.90;;;;;;4901917;29;20786;-79
2022/12/31 14:03:42;;;;;;;7.00;6.50;;;17.70;99.90;;;;;;4909232;29;20626;-78
2022/12/31 14:06:22;;;;;;;2.60;2.50;;;17.70;99.90;;;;;;4901435;29;20229;-80
2022/12/31 14:08:49;;;;;;;3.80;3.60;;;17.70;99.90;;;;;;4904983;29;20204;-80
2022/12/31 14:11:28;;;;;;;3.80;3.60;;;17.70;99.90;;;;;;4904291;29;20276;-79
2022/12/31 14:14:07;;;;;;;4.13;3.83;;;17.60;99.90;;;;;;4903840;29;20275;-79
2022/12/31 14:16:40;;;;;;;4.40;4.20;;;17.60;99.90;;;;;;4903770;29;20264;-79
2022/12/31 14:19:17;;;;;;;5.50;5.20;;;17.50;99.90;;;;;;4903407;29;20569;-81
2022/12/31 14:21:51;;;;;;;6.90;6.50;;;17.50;99.90;;;;;;4901794;29;20688;-82
2022/12/31 14:24:31;;;;;;;3.33;3.03;;;17.40;99.90;;;;;;4901833;29;20200;-81
2022/12/31 14:27:03;;;;;;;9.10;8.60;;;17.40;99.90;;;;;;4898134;29;20261;-80
2022/12/31 14:29:39;;;;;;;10.40;9.80;;;17.30;99.90;;;;;;4901465;29;20193;-80
2022/12/31 14:32:25;;;;;;;10.57;9.97;;;17.20;99.90;;;;;;4901717;29;20228;-81
2022/12/31 14:35:00;;;;;;;3.83;3.63;;;17.10;99.90;;;;;;4902126;29;20201;-82
2022/12/31 14:37:37;;;;;;;4.63;4.33;;;17.00;99.90;;;;;;4902337;29;20200;-80
2022/12/31 14:40:18;;;;;;;6.07;5.67;;;16.90;99.90;;;;;;4901595;29;20548;-81
2022/12/31 14:42:57;;;;;;;10.80;10.20;;;16.70;99.90;;;;;;4902367;29;20215;-79
2022/12/31 14:45:34;;;;;;;5.63;5.23;;;16.70;99.90;;;;;;4901295;29;20224;-80
2022/12/31 14:48:10;;;;;;;3.57;3.37;;;16.50;99.90;;;;;;4904065;29;20256;-80
2022/12/31 14:50:37;;;;;;;4.27;3.87;;;16.40;99.90;;;;;;4903071;29;20280;-81
2022/12/31 14:53:17;;;;;;;4.30;4.03;;;16.40;99.90;;;;;;4902136;29;20205;-80
2022/12/31 14:55:44;;;;;;;4.30;4.00;;;16.30;99.90;;;;;;4901566;29;20197;-81
2022/12/31 14:58:23;;;;;;;9.77;9.20;;;16.20;99.90;;;;;;4903146;29;20211;-82
2022/12/31 15:00:54;;;;;;;9.70;9.10;;;16.10;99.90;;;;;;4911863;29;20854;-81
2022/12/31 15:03:33;;;;;;;9.90;9.30;;;16.00;99.90;;;;;;4899633;29;20332;-80
2022/12/31 15:06:12;;;;;;;10.20;9.40;;;16.00;99.90;;;;;;4903169;29;20228;-80
2022/12/31 15:08:53;;;;;;;10.03;9.43;;;15.90;99.90;;;;;;4916042;29;20201;-81
2022/12/31 15:11:32;;;;;;;9.90;9.30;;;15.80;99.90;;;;;;4900605;29;20232;-80
2022/12/31 15:14:29;;;;;;;10.00;9.40;;;15.70;99.90;;;;;;4900983;29;20208;-80
2022/12/31 15:17:04;;;;;;;10.27;9.57;;;15.70;99.90;;;;;;4867089;29;20213;-81
2022/12/31 15:20:05;;;;;;;10.00;9.40;;;15.60;99.90;;;;;;4899927;29;20575;-81
2022/12/31 15:22:40;;;;;;;10.20;9.60;;;15.50;99.90;;;;;;4913388;29;20280;-81
2022/12/31 15:25:24;;;;;;;10.00;9.40;;;15.40;99.90;;;;;;4898409;29;20719;-80
2022/12/31 15:27:51;;;;;;;10.00;9.40;;;15.30;99.90;;;;;;4903876;29;20210;-80
2022/12/31 15:30:35;;;;;;;10.00;9.30;;;15.30;99.90;;;;;;4902494;29;20196;-80
2022/12/31 15:33:05;;;;;;;10.00;9.40;;;15.20;99.90;;;;;;4900317;29;20938;-79
2022/12/31 15:35:45;;;;;;;9.90;9.30;;;15.10;99.90;;;;;;4901794;29;20209;-81
2022/12/31 15:38:28;;;;;;;9.80;9.20;;;15.00;99.90;;;;;;4899346;29;20662;-80
2022/12/31 15:40:58;;;;;;;9.90;9.30;;;14.90;99.90;;;;;;4896758;29;20286;-81
2022/12/31 15:43:35;;;;;;;10.20;9.60;;;14.80;99.90;;;;;;4901905;29;20203;-81
2022/12/31 15:46:07;;;;;;;10.53;9.93;;;14.80;99.90;;;;;;4903120;29;20800;-80
2022/12/31 15:48:41;;;;;;;11.00;10.20;;;14.70;99.90;;;;;;4914632;29;20231;-80
2022/12/31 15:51:16;;;;;;;12.63;11.73;;;14.60;99.90;;;;;;4898390;29;20223;-80
2022/12/31 15:53:51;;;;;;;12.77;11.90;;;14.50;99.90;;;;;;4899884;29;20217;-82
2022/12/31 15:56:26;;;;;;;15.13;14.03;;;14.40;99.90;;;;;;4901782;29;20233;-82
2022/12/31 15:58:58;;;;;;;15.27;14.17;;;14.20;99.90;;;;;;4896133;29;20263;-79
2022/12/31 16:01:29;;;;;;;14.67;13.57;;;14.00;99.90;;;;;;4897182;29;20233;-82
2022/12/31 16:03:58;;;;;;;15.00;13.80;;;14.00;99.90;;;;;;4897329;29;20215;-81
2022/12/31 16:06:29;;;;;;;14.30;13.20;;;13.90;99.90;;;;;;4899500;29;20730;-82
2022/12/31 16:08:57;;;;;;;14.00;13.00;;;13.80;99.90;;;;;;4898325;29;20711;-79
2022/12/31 16:11:29;;;;;;;13.27;12.30;;;13.70;99.90;;;;;;4900940;29;20242;-81
2022/12/31 16:13:57;;;;;;;13.73;12.73;;;13.60;99.90;;;;;;4897391;29;20736;-79
2022/12/31 16:16:25;;;;;;;15.27;14.07;;;13.50;99.90;;;;;;4895553;29;20205;-79
2022/12/31 16:18:52;;;;;;;16.47;15.07;;;13.40;99.90;;;;;;4903179;29;20237;-80
2022/12/31 16:21:28;;;;;;;15.67;14.57;;;13.30;99.90;;;;;;4897721;29;20225;-80
2022/12/31 16:23:57;;;;;;;16.90;15.57;;;13.10;99.90;;;;;;4906928;29;20274;-78
2022/12/31 16:26:33;;;;;;;15.70;14.27;;;13.10;99.90;;;;;;4902377;29;20221;-80
2022/12/31 16:29:03;;;;;;;14.93;13.67;;;13.00;99.90;;;;;;4900071;29;20623;-79
2022/12/31 16:31:31;;;;;;;15.70;14.27;;;12.80;99.90;;;;;;4884880;29;20208;-79